Time;durP1;ratioP1;P1;durP2;ratioP2;P2;SDS_P1;SDS_P2;PMS_P1;PMS_P2;Temp;Humidity;BMP_temperature;BMP_pressure;BME280_temperature;BME280_humidity;BME280_pressure;Samples;Min_cycle;Max_cycle;Signal;HPM_P1;HPM_P2
2023/10/26 00:01:45;;;;;;;21.73;11.77;;;;;;;12.32;75.71;99820.44;5032250;28;20072;-48
2023/10/26 00:04:11;;;;;;;23.30;11.20;;;;;;;12.14;77.93;99821.50;5032665;28;20495;-48
2023/10/26 00:06:36;;;;;;;25.95;11.80;;;;;;;12.19;78.05;99822.34;5032255;28;20090;-45
2023/10/26 00:09:01;;;;;;;23.17;11.57;;;;;;;12.34;76.39;99820.44;5032468;28;20061;-46
2023/10/26 00:11:29;;;;;;;18.73;10.75;;;;;;;12.38;75.77;99816.91;5032212;28;20466;-47
2023/10/26 00:13:54;;;;;;;22.92;10.63;;;;;;;12.34;75.59;99818.69;5032889;28;20029;-44
2023/10/26 00:16:19;;;;;;;22.77;11.40;;;;;;;12.29;75.78;99817.88;5032597;28;20040;-51
2023/10/26 00:18:45;;;;;;;22.17;11.52;;;;;;;12.24;76.05;99826.66;5032374;28;20349;-45
2023/10/26 00:21:10;;;;;;;23.90;11.23;;;;;;;12.02;77.76;99831.19;5032826;28;20049;-45
2023/10/26 00:23:35;;;;;;;24.50;11.65;;;;;;;12.07;77.56;99826.81;5031574;28;20025;-44
2023/10/26 00:26:01;;;;;;;26.30;11.48;;;;;;;12.15;76.75;99830.19;5032355;28;20195;-44
2023/10/26 00:28:26;;;;;;;26.67;12.48;;;;;;;12.16;76.97;99834.53;5030475;28;20064;-47
2023/10/26 00:30:51;;;;;;;22.00;11.32;;;;;;;12.21;76.81;99832.75;5032215;28;20064;-44
2023/10/26 00:33:16;;;;;;;22.83;11.45;;;;;;;12.20;76.38;99837.09;5030799;28;20033;-44
2023/10/26 00:35:42;;;;;;;20.48;11.32;;;;;;;12.11;76.49;99829.38;5031825;28;20045;-44
2023/10/26 00:38:07;;;;;;;23.10;10.98;;;;;;;12.13;76.02;99821.53;5031361;28;20057;-45
2023/10/26 00:40:33;;;;;;;21.60;11.57;;;;;;;12.13;75.67;99818.91;5032097;28;20041;-49
2023/10/26 00:43:02;;;;;;;21.17;10.77;;;;;;;12.09;75.39;99831.13;5032732;28;20591;-49
2023/10/26 00:45:33;;;;;;;21.60;10.75;;;;;;;12.04;75.12;99825.09;5032553;28;20046;-45
2023/10/26 00:47:59;;;;;;;21.48;10.80;;;;;;;12.00;75.35;99835.59;5032980;28;20083;-44
2023/10/26 00:50:24;;;;;;;17.10;9.77;;;;;;;12.00;75.01;99838.19;5032131;28;20033;-44
2023/10/26 00:52:50;;;;;;;21.70;11.07;;;;;;;12.12;74.33;99840.69;5031345;28;20442;-44
2023/10/26 00:55:16;;;;;;;21.98;11.38;;;;;;;12.07;74.86;99842.50;5031983;28;20462;-50
2023/10/26 00:57:42;;;;;;;20.15;10.68;;;;;;;12.12;74.39;99841.56;5031632;28;20132;-47
2023/10/26 01:00:09;;;;;;;17.63;10.20;;;;;;;12.15;73.48;99838.91;5030301;28;20116;-50
2023/10/26 01:02:36;;;;;;;18.65;10.48;;;;;;;12.12;73.36;99841.56;5030001;28;20110;-45
2023/10/26 01:05:01;;;;;;;19.73;10.68;;;;;;;12.07;73.49;99838.13;5031514;28;20535;-48
2023/10/26 01:07:26;;;;;;;18.95;10.52;;;;;;;12.01;73.45;99835.56;5031180;28;20068;-47
2023/10/26 01:09:52;;;;;;;20.58;10.43;;;;;;;12.00;73.50;99840.81;5031619;28;20026;-48
2023/10/26 01:12:17;;;;;;;21.13;10.90;;;;;;;11.94;73.72;99836.50;5031650;28;20041;-45
2023/10/26 01:14:43;;;;;;;18.77;10.05;;;;;;;11.92;73.39;99834.78;5030851;28;20052;-45
2023/10/26 01:17:09;;;;;;;18.65;9.93;;;;;;;11.90;73.18;99832.16;5031579;28;20083;-45
2023/10/26 01:19:48;;;;;;;22.20;11.18;;;;;;;11.84;73.56;99829.59;5031180;28;20036;-44
2023/10/26 01:22:13;;;;;;;18.92;10.13;;;;;;;11.84;73.65;99829.59;5031474;28;20046;-49
2023/10/26 01:24:39;;;;;;;20.95;9.93;;;;;;;11.81;73.54;99828.78;5030507;28;20412;-53
2023/10/26 01:27:04;;;;;;;19.00;9.90;;;;;;;11.80;73.43;99822.69;5031545;28;20033;-46
2023/10/26 01:29:31;;;;;;;18.80;10.25;;;;;;;11.75;73.48;99822.72;5031712;28;20463;-46
2023/10/26 01:31:56;;;;;;;18.60;10.13;;;;;;;11.76;72.99;99827.09;5032270;28;20095;-46
2023/10/26 01:34:22;;;;;;;20.02;10.55;;;;;;;11.61;73.95;99828.91;5029555;28;20039;-43
2023/10/26 01:36:48;;;;;;;25.98;10.13;;;;;;;11.58;74.25;99824.59;5030988;28;20053;-46
2023/10/26 01:39:18;;;;;;;19.35;9.73;;;;;;;11.63;73.84;99821.94;5029866;28;20168;-44
2023/10/26 01:41:44;;;;;;;19.00;10.20;;;;;;;11.63;73.63;99825.41;5029279;28;20492;-44
2023/10/26 01:44:09;;;;;;;18.58;9.80;;;;;;;11.64;73.92;99821.06;5030969;28;20036;-47
2023/10/26 01:46:35;;;;;;;21.55;10.10;;;;;;;11.61;74.35;99818.44;5030867;28;20037;-44
2023/10/26 01:49:01;;;;;;;19.60;10.60;;;;;;;11.55;74.29;99810.66;5030961;28;20276;-45
2023/10/26 01:51:26;;;;;;;18.50;9.52;;;;;;;11.59;74.00;99814.97;5030237;28;20030;-43
2023/10/26 01:53:52;;;;;;;18.77;9.85;;;;;;;11.57;74.02;99812.41;5030466;28;20042;-45
2023/10/26 01:56:17;;;;;;;18.02;9.80;;;;;;;11.56;73.83;99809.78;5030901;28;20034;-44
2023/10/26 01:58:43;;;;;;;20.65;10.65;;;;;;;11.48;74.66;99816.81;5030846;28;20092;-43
2023/10/26 02:01:09;;;;;;;17.90;10.00;;;;;;;11.53;73.94;99815.03;5030745;28;20033;-45
2023/10/26 02:03:34;;;;;;;18.50;9.88;;;;;;;11.50;74.56;99809.84;5030666;28;20106;-46
2023/10/26 02:06:03;;;;;;;22.13;10.80;;;;;;;11.29;75.61;99822.16;5029685;28;20518;-43
2023/10/26 02:08:28;;;;;;;26.13;10.30;;;;;;;11.31;76.12;99827.38;5030712;28;20033;-44
2023/10/26 02:10:53;;;;;;;21.90;11.02;;;;;;;11.36;76.29;99823.84;5030942;28;20118;-45
2023/10/26 02:13:19;;;;;;;23.67;10.88;;;;;;;11.46;76.18;99824.66;5030744;28;20120;-46
2023/10/26 02:15:45;;;;;;;25.02;11.38;;;;;;;11.63;75.63;99816.72;5030615;28;20076;-45
2023/10/26 02:18:10;;;;;;;24.63;11.60;;;;;;;11.66;75.16;99808.84;5031115;28;20057;-45
2023/10/26 02:20:36;;;;;;;23.63;11.43;;;;;;;11.69;75.02;99804.47;5031077;28;20057;-47
2023/10/26 02:23:02;;;;;;;21.98;10.82;;;;;;;11.70;74.85;99807.94;5032462;28;20110;-48
2023/10/26 02:25:27;;;;;;;22.13;10.35;;;;;;;11.69;74.56;99806.22;5038066;28;20049;-45
2023/10/26 02:27:53;;;;;;;20.58;10.77;;;;;;;11.61;74.52;99803.66;5031839;28;20034;-44
2023/10/26 02:30:18;;;;;;;18.67;10.13;;;;;;;11.64;74.25;99803.66;5034199;28;20044;-43
2023/10/26 02:32:43;;;;;;;18.48;9.82;;;;;;;11.55;74.55;99805.44;5031112;28;20095;-46
2023/10/26 02:35:09;;;;;;;23.70;11.48;;;;;;;11.40;75.19;99807.28;5029766;28;20037;-44
2023/10/26 02:37:38;;;;;;;26.50;11.63;;;;;;;11.40;75.46;99814.28;5028783;28;20116;-44
2023/10/26 02:40:05;;;;;;;29.23;12.23;;;;;;;11.34;76.33;99817.75;5029696;28;20504;-44
2023/10/26 02:42:31;;;;;;;27.17;11.82;;;;;;;11.53;75.92;99813.28;5029474;28;20083;-44
2023/10/26 02:44:57;;;;;;;23.52;11.07;;;;;;;11.64;75.01;99821.06;5029363;28;20116;-44
2023/10/26 02:47:23;;;;;;;22.27;11.52;;;;;;;11.65;74.57;99815.78;5029787;28;20049;-45
2023/10/26 02:49:49;;;;;;;22.77;11.32;;;;;;;11.64;74.55;99811.47;5029297;28;20129;-47
2023/10/26 02:52:14;;;;;;;23.75;11.23;;;;;;;11.61;74.96;99810.63;5029701;28;20141;-47
2023/10/26 02:54:39;;;;;;;22.08;11.25;;;;;;;11.57;74.92;99799.34;5029569;28;20118;-45
2023/10/26 02:57:05;;;;;;;21.75;10.43;;;;;;;11.64;74.41;99797.56;5029710;28;20423;-44
2023/10/26 02:59:30;;;;;;;21.27;10.80;;;;;;;11.65;73.94;99799.25;5029078;28;20129;-46
2023/10/26 03:01:56;;;;;;;24.33;11.52;;;;;;;11.60;74.66;99795.84;5029972;28;20114;-46
2023/10/26 03:04:21;;;;;;;23.88;11.45;;;;;;;11.59;75.11;99804.53;5029597;28;20034;-45
2023/10/26 03:06:46;;;;;;;22.58;10.73;;;;;;;11.63;74.58;99801.03;5029122;28;20543;-44
2023/10/26 03:09:13;;;;;;;23.15;11.02;;;;;;;11.60;74.83;99807.13;5028379;28;20048;-47
2023/10/26 03:11:39;;;;;;;21.63;10.45;;;;;;;11.63;74.71;99804.53;5029152;28;20029;-46
2023/10/26 03:14:05;;;;;;;20.38;10.20;;;;;;;11.63;74.45;99804.53;5029318;28;20167;-46
2023/10/26 03:16:32;;;;;;;23.05;11.30;;;;;;;11.55;74.87;99803.72;5029302;28;20492;-45
2023/10/26 03:18:57;;;;;;;21.95;10.65;;;;;;;11.59;74.52;99801.94;5029635;28;20120;-48
2023/10/26 03:21:23;;;;;;;24.50;10.65;;;;;;;11.54;74.52;99804.56;5029248;28;20125;-45
2023/10/26 03:23:57;;;;;;;25.55;10.55;;;;;;;11.55;74.34;99795.88;5029175;28;20049;-44
2023/10/26 03:26:23;;;;;;;22.15;10.90;;;;;;;11.53;74.32;99799.34;5029895;28;20036;-45
2023/10/26 03:28:49;;;;;;;20.40;10.75;;;;;;;11.50;74.05;99795.06;5031735;28;20037;-47
2023/10/26 03:31:15;;;;;;;21.10;10.32;;;;;;;11.47;74.20;99786.34;5031379;28;20029;-48
2023/10/26 03:33:40;;;;;;;22.45;10.18;;;;;;;11.44;74.00;99787.25;5027641;28;20403;-44
2023/10/26 03:36:17;;;;;;;20.77;10.20;;;;;;;11.42;73.82;99780.31;5029563;28;20092;-44
2023/10/26 03:38:43;;;;;;;22.95;10.70;;;;;;;11.36;73.87;99784.72;5029365;28;20061;-46
2023/10/26 03:41:09;;;;;;;22.67;10.63;;;;;;;11.39;74.34;99778.59;5029928;28;20072;-46
2023/10/26 03:43:34;;;;;;;22.50;10.02;;;;;;;11.44;74.43;99779.44;5031833;28;20035;-45
2023/10/26 03:45:59;;;;;;;22.10;10.40;;;;;;;11.45;74.50;99778.56;5032398;28;20033;-45
2023/10/26 03:48:25;;;;;;;22.42;10.25;;;;;;;11.47;74.86;99776.78;5031512;28;20507;-46
2023/10/26 03:50:50;;;;;;;22.35;10.80;;;;;;;11.44;75.09;99779.44;5031227;28;20029;-46
2023/10/26 03:53:15;;;;;;;23.25;10.60;;;;;;;11.36;75.36;99774.28;5027688;28;20037;-47
2023/10/26 03:55:41;;;;;;;21.05;10.30;;;;;;;11.47;75.64;99782.00;5028890;28;20115;-40
2023/10/26 03:58:06;;;;;;;23.50;10.48;;;;;;;11.59;74.91;99783.66;5031704;28;20060;-43
2023/10/26 04:00:31;;;;;;;21.10;10.25;;;;;;;11.56;75.44;99781.94;5032727;28;20084;-45
2023/10/26 04:02:56;;;;;;;23.33;10.43;;;;;;;11.67;75.04;99779.25;5032924;28;20045;-44
2023/10/26 04:05:22;;;;;;;20.45;9.93;;;;;;;11.71;74.87;99775.75;5032993;28;20037;-45
2023/10/26 04:07:47;;;;;;;21.65;10.52;;;;;;;11.68;74.87;99778.38;5032233;28;20029;-44
2023/10/26 04:10:12;;;;;;;22.90;10.32;;;;;;;11.67;75.11;99777.50;5032703;28;20037;-47
2023/10/26 04:12:38;;;;;;;18.02;9.52;;;;;;;11.72;74.54;99764.41;5032303;28;20499;-47
2023/10/26 04:15:04;;;;;;;20.92;10.35;;;;;;;11.66;74.66;99767.06;5033245;28;20040;-48
2023/10/26 04:17:29;;;;;;;24.15;10.68;;;;;;;11.70;74.70;99753.13;5032169;28;20038;-48
2023/10/26 04:19:55;;;;;;;23.52;10.70;;;;;;;11.73;74.69;99748.75;5032314;28;20033;-45
2023/10/26 04:22:20;;;;;;;22.42;10.73;;;;;;;11.79;74.82;99747.84;5032120;28;20045;-47
2023/10/26 04:24:45;;;;;;;22.80;10.43;;;;;;;11.76;74.61;99755.72;5031999;28;20044;-45
2023/10/26 04:27:11;;;;;;;23.02;10.55;;;;;;;11.74;74.50;99755.72;5032610;28;20072;-46
2023/10/26 04:29:36;;;;;;;20.67;10.00;;;;;;;11.70;74.24;99761.81;5031689;28;20072;-43
2023/10/26 04:32:01;;;;;;;21.48;10.13;;;;;;;11.65;74.53;99753.16;5032296;28;20103;-48
2023/10/26 04:34:27;;;;;;;20.67;10.20;;;;;;;11.62;74.36;99750.56;5031807;28;20065;-51
2023/10/26 04:36:52;;;;;;;20.10;9.65;;;;;;;11.59;74.12;99747.97;5032225;28;20034;-45
2023/10/26 04:39:18;;;;;;;21.15;9.80;;;;;;;11.55;73.95;99755.84;5032349;28;20037;-44
2023/10/26 04:41:43;;;;;;;20.15;10.48;;;;;;;11.52;74.05;99753.28;5031280;28;20045;-49
2023/10/26 04:44:09;;;;;;;22.80;10.23;;;;;;;11.48;73.74;99747.19;5031943;28;20048;-46
2023/10/26 04:46:34;;;;;;;19.98;10.00;;;;;;;11.44;74.03;99744.63;5031668;28;20420;-47
2023/10/26 04:49:00;;;;;;;21.48;9.95;;;;;;;11.44;74.03;99740.28;5032116;28;20500;-46
2023/10/26 04:51:25;;;;;;;22.02;10.13;;;;;;;11.45;74.36;99744.63;5031767;28;20034;-46
2023/10/26 04:53:50;;;;;;;24.70;10.95;;;;;;;11.42;74.36;99742.03;5030644;28;20060;-45
2023/10/26 04:56:16;;;;;;;21.85;10.43;;;;;;;11.39;74.08;99739.47;5032074;28;20033;-46
2023/10/26 04:58:43;;;;;;;21.27;10.43;;;;;;;11.37;73.93;99743.81;5031593;28;20091;-45
2023/10/26 05:01:08;;;;;;;22.70;10.52;;;;;;;11.35;73.87;99735.13;5032123;28;20034;-43
2023/10/26 05:03:34;;;;;;;18.95;9.77;;;;;;;11.34;73.91;99736.88;5031653;28;20381;-48
2023/10/26 05:05:59;;;;;;;20.33;9.93;;;;;;;11.32;73.96;99741.25;5032259;28;20542;-46
2023/10/26 05:08:25;;;;;;;23.05;10.65;;;;;;;11.30;74.35;99747.34;5031174;28;20036;-46
2023/10/26 05:10:50;;;;;;;21.52;10.10;;;;;;;11.29;74.11;99748.22;5031075;28;20119;-43
2023/10/26 05:13:15;;;;;;;22.90;10.30;;;;;;;11.27;74.04;99750.88;5030391;28;20045;-44
2023/10/26 05:15:43;;;;;;;21.30;9.98;;;;;;;11.24;73.78;99750.00;5029712;28;20049;-45
2023/10/26 05:18:08;;;;;;;21.17;9.52;;;;;;;11.26;73.84;99754.34;5032416;28;20030;-45
2023/10/26 05:20:34;;;;;;;28.73;10.45;;;;;;;11.28;74.28;99755.19;5031932;28;20141;-48
2023/10/26 05:23:00;;;;;;;19.63;9.32;;;;;;;11.27;75.11;99750.00;5030859;28;20127;-46
2023/10/26 05:25:26;;;;;;;37.42;9.63;;;;;;;11.37;75.57;99749.03;5030544;28;20037;-45
2023/10/26 05:27:53;;;;;;;29.42;10.00;;;;;;;11.22;76.72;99751.78;5031922;28;20121;-46
2023/10/26 05:30:18;;;;;;;22.52;9.98;;;;;;;11.52;75.79;99755.91;5030833;28;20029;-45
2023/10/26 05:32:43;;;;;;;45.08;9.32;;;;;;;11.68;74.91;99747.03;5031569;28;20040;-47
2023/10/26 05:35:09;;;;;;;49.22;9.50;;;;;;;11.71;74.87;99745.25;5032166;28;20111;-45
2023/10/26 05:37:34;;;;;;;62.50;10.30;;;;;;;11.63;74.78;99747.09;5030897;28;20122;-45
2023/10/26 05:40:00;;;;;;;49.38;9.63;;;;;;;11.25;76.75;99736.97;5030879;28;20033;-48
2023/10/26 05:42:25;;;;;;;88.35;11.57;;;;;;;11.57;76.08;99748.88;5030994;28;20041;-44
2023/10/26 05:44:53;;;;;;;47.63;9.35;;;;;;;11.73;75.33;99742.63;5030199;28;20454;-44
2023/10/26 05:47:18;;;;;;;25.10;8.55;;;;;;;11.81;74.74;99745.22;5030944;28;20113;-45
2023/10/26 05:49:44;;;;;;;35.80;8.95;;;;;;;11.71;75.41;99737.41;5030252;28;20034;-45
2023/10/26 05:52:10;;;;;;;45.72;9.52;;;;;;;11.76;75.51;99735.69;5030793;28;20042;-46
2023/10/26 05:54:35;;;;;;;24.23;9.18;;;;;;;11.89;75.14;99735.56;5030149;28;20140;-47
2023/10/26 05:57:00;;;;;;;29.38;9.90;;;;;;;11.93;75.18;99732.91;5031425;28;20107;-46
2023/10/26 05:59:26;;;;;;;27.02;10.35;;;;;;;11.89;75.55;99731.22;5031709;28;20034;-45
2023/10/26 06:01:51;;;;;;;24.35;11.05;;;;;;;12.04;75.27;99724.94;5031915;28;20042;-47
2023/10/26 06:04:18;;;;;;;33.47;10.98;;;;;;;12.06;75.22;99725.81;5029707;28;20056;-46
2023/10/26 06:06:43;;;;;;;22.98;10.50;;;;;;;12.10;75.01;99723.13;5030430;28;20041;-45
2023/10/26 06:09:10;;;;;;;35.97;10.68;;;;;;;11.83;76.36;99719.97;5030673;28;20499;-44
2023/10/26 06:11:36;;;;;;;51.05;11.82;;;;;;;11.55;78.28;99716.69;5035104;28;20041;-46
2023/10/26 06:14:01;;;;;;;45.58;10.07;;;;;;;11.71;78.08;99710.47;5051218;22;20052;-53
2023/10/26 06:16:26;;;;;;;48.97;9.98;;;;;;;11.47;79.22;99705.44;5049883;28;20033;-50
2023/10/26 06:18:52;;;;;;;48.55;11.30;;;;;;;11.59;78.60;99711.44;5048671;28;20120;-49
2023/10/26 06:21:17;;;;;;;41.85;10.23;;;;;;;11.50;78.85;99710.66;5049595;28;20033;-49
2023/10/26 06:23:44;;;;;;;48.25;10.60;;;;;;;11.74;77.83;99705.25;5048051;28;20091;-51
2023/10/26 06:26:09;;;;;;;43.67;10.88;;;;;;;11.74;77.79;99711.34;5049874;28;20028;-46
2023/10/26 06:28:34;;;;;;;78.03;10.55;;;;;;;12.11;76.42;99700.50;5049282;28;20036;-48
2023/10/26 06:31:16;;;;;;;52.10;10.70;;;;;;;12.20;75.84;99702.97;5049935;28;20028;-49
2023/10/26 06:33:42;;;;;;;24.10;10.07;;;;;;;12.25;76.17;99714.28;5049324;28;20128;-50
2023/10/26 06:36:09;;;;;;;38.92;10.68;;;;;;;12.23;76.30;99720.38;5049741;28;20098;-47
2023/10/26 06:38:36;;;;;;;47.78;10.63;;;;;;;11.75;79.52;99733.97;5049162;28;20041;-46
2023/10/26 06:41:01;;;;;;;45.03;10.77;;;;;;;12.15;77.67;99734.41;5049590;28;20052;-45
2023/10/26 06:43:26;;;;;;;26.77;10.35;;;;;;;12.31;77.10;99737.72;5049387;28;20531;-46
2023/10/26 06:45:52;;;;;;;30.67;10.52;;;;;;;12.38;76.58;99731.50;5049622;28;20383;-46
2023/10/26 06:48:20;;;;;;;37.28;10.00;;;;;;;12.22;77.13;99739.56;5050015;28;20116;-46
2023/10/26 06:50:46;;;;;;;28.92;10.27;;;;;;;12.45;76.55;99732.28;5049195;28;20577;-47
2023/10/26 06:53:12;;;;;;;35.05;10.35;;;;;;;12.07;77.72;99735.38;5049595;28;20479;-43
2023/10/26 06:55:38;;;;;;;36.30;10.10;;;;;;;12.43;76.54;99723.63;5048795;28;20035;-46
2023/10/26 06:58:04;;;;;;;57.25;9.77;;;;;;;12.53;76.17;99727.84;5049494;28;20033;-45
2023/10/26 07:00:30;;;;;;;32.28;9.32;;;;;;;12.56;76.27;99738.28;5049199;28;20354;-44
2023/10/26 07:02:56;;;;;;;26.58;8.80;;;;;;;12.39;76.96;99730.63;5049383;28;20040;-46
2023/10/26 07:05:21;;;;;;;65.72;9.13;;;;;;;12.39;77.53;99724.53;5049460;28;20025;-46
2023/10/26 07:07:46;;;;;;;44.25;9.60;;;;;;;12.56;76.77;99726.03;5049065;28;20048;-46
2023/10/26 07:10:15;;;;;;;31.80;9.13;;;;;;;12.37;77.65;99731.56;5049196;28;20040;-47
2023/10/26 07:12:44;;;;;;;37.70;9.77;;;;;;;12.46;77.60;99737.50;5048774;28;20033;-49
2023/10/26 07:15:11;;;;;;;24.77;9.80;;;;;;;12.67;77.07;99738.13;5049494;28;20044;-47
2023/10/26 07:17:36;;;;;;;41.00;10.27;;;;;;;12.55;77.76;99739.16;5048934;28;20029;-48
2023/10/26 07:20:05;;;;;;;35.28;10.23;;;;;;;12.73;77.25;99743.28;5049287;28;20506;-45
2023/10/26 07:22:34;;;;;;;43.33;10.52;;;;;;;12.89;76.81;99729.97;5048950;28;20045;-47
2023/10/26 07:25:01;;;;;;;29.35;10.13;;;;;;;12.66;78.28;99733.78;5049152;28;20119;-48
2023/10/26 07:27:27;;;;;;;25.77;10.15;;;;;;;13.01;76.89;99729.78;5048872;28;20066;-47
2023/10/26 07:29:52;;;;;;;30.77;10.82;;;;;;;12.96;77.68;99730.75;5049194;28;20029;-51
2023/10/26 07:32:18;;;;;;;55.65;11.20;;;;;;;12.73;78.36;99744.16;5050244;28;20063;-50
2023/10/26 07:34:43;;;;;;;32.97;11.23;;;;;;;13.04;77.88;99738.50;5052612;28;20399;-48
2023/10/26 07:37:08;;;;;;;40.55;11.23;;;;;;;13.08;77.73;99735.81;5053573;28;20119;-42
2023/10/26 07:39:35;;;;;;;41.28;11.23;;;;;;;13.12;77.78;99741.84;5053105;28;20060;-48
2023/10/26 07:42:00;;;;;;;54.75;11.80;;;;;;;12.97;78.34;99743.81;5052911;28;20048;-43
2023/10/26 07:44:26;;;;;;;70.05;11.70;;;;;;;13.31;77.74;99741.56;5052745;28;20044;-45
2023/10/26 07:46:52;;;;;;;37.08;11.45;;;;;;;13.11;78.33;99740.13;5052712;28;20091;-50
2023/10/26 07:49:17;;;;;;;31.90;12.05;;;;;;;13.39;77.86;99738.84;5052884;28;20047;-49
2023/10/26 07:51:42;;;;;;;41.22;11.85;;;;;;;13.50;77.52;99739.53;5052367;28;20037;-47
2023/10/26 07:54:08;;;;;;;50.10;12.02;;;;;;;13.66;77.01;99735.75;5052546;28;20041;-47
2023/10/26 07:56:34;;;;;;;41.75;11.38;;;;;;;13.62;77.33;99748.94;5052192;28;20029;-49
2023/10/26 07:58:59;;;;;;;48.33;11.20;;;;;;;13.59;78.13;99734.16;5052844;28;20033;-46
2023/10/26 08:01:24;;;;;;;39.63;11.80;;;;;;;13.37;78.61;99732.75;5052931;28;20062;-46
2023/10/26 08:03:49;;;;;;;35.85;11.82;;;;;;;13.47;78.52;99729.13;5051876;28;20128;-46
2023/10/26 08:06:15;;;;;;;42.95;11.52;;;;;;;13.77;77.45;99738.19;5052196;28;20067;-46
2023/10/26 08:08:40;;;;;;;61.95;12.02;;;;;;;13.80;77.17;99736.38;5051841;28;20029;-47
2023/10/26 08:11:10;;;;;;;30.67;11.60;;;;;;;13.54;77.97;99735.13;5045864;28;20043;-46
2023/10/26 08:13:35;;;;;;;33.58;11.27;;;;;;;13.78;77.93;99734.69;5050640;28;20037;-49
2023/10/26 08:16:00;;;;;;;35.30;11.05;;;;;;;13.69;78.08;99733.09;5048686;28;20091;-47
2023/10/26 08:18:26;;;;;;;33.22;11.52;;;;;;;13.71;77.91;99740.94;5031973;28;20061;-46
2023/10/26 08:20:52;;;;;;;40.47;10.95;;;;;;;13.67;77.68;99734.00;5043728;28;20074;-43
2023/10/26 08:23:18;;;;;;;28.40;10.45;;;;;;;13.85;77.36;99724.94;5051461;28;20120;-46
2023/10/26 08:25:43;;;;;;;36.20;11.35;;;;;;;14.01;76.73;99734.28;5049685;28;20491;-49
2023/10/26 08:28:08;;;;;;;35.35;10.38;;;;;;;13.79;77.08;99726.78;5051335;28;20029;-46
2023/10/26 08:30:34;;;;;;;29.35;10.32;;;;;;;13.84;77.42;99728.47;5035408;28;20109;-48
2023/10/26 08:33:04;;;;;;;28.15;10.07;;;;;;;13.86;77.48;99734.53;5031694;28;20442;-49
2023/10/26 08:35:29;;;;;;;36.72;10.10;;;;;;;13.90;77.33;99733.59;5030465;28;20044;-47
2023/10/26 08:37:55;;;;;;;31.58;10.43;;;;;;;13.98;78.21;99729.94;5040169;28;20029;-45
2023/10/26 08:40:20;;;;;;;31.08;10.52;;;;;;;13.72;78.37;99732.19;5051503;28;20106;-48
2023/10/26 08:42:46;;;;;;;30.48;10.80;;;;;;;14.12;77.44;99738.41;5050571;28;20128;-49
2023/10/26 08:45:20;;;;;;;30.55;10.68;;;;;;;14.28;77.25;99740.72;5051369;28;20114;-51
2023/10/26 08:47:48;;;;;;;32.15;10.68;;;;;;;14.35;76.86;99735.34;5051129;28;21278;-49
2023/10/26 08:50:14;;;;;;;27.10;10.38;;;;;;;14.45;76.56;99739.56;5051676;28;20033;-49
2023/10/26 08:52:40;;;;;;;26.95;10.15;;;;;;;14.64;76.83;99732.13;5050668;28;20129;-48
2023/10/26 08:55:06;;;;;;;24.50;9.60;;;;;;;14.85;76.98;99728.19;5051054;28;20070;-46
2023/10/26 08:57:32;;;;;;;28.67;10.45;;;;;;;14.60;77.44;99726.09;5050996;28;20037;-46
2023/10/26 08:59:57;;;;;;;27.05;10.52;;;;;;;14.88;76.70;99736.00;5051124;28;20442;-50
2023/10/26 09:02:22;;;;;;;27.23;10.57;;;;;;;14.71;76.52;99733.72;5050983;28;20411;-51
2023/10/26 09:05:04;;;;;;;27.65;10.45;;;;;;;14.91;75.02;99730.69;5050879;28;20379;-44
2023/10/26 09:07:30;;;;;;;28.98;10.85;;;;;;;14.48;76.45;99733.38;5031013;28;20503;-46
2023/10/26 09:09:55;;;;;;;27.42;11.00;;;;;;;14.64;76.35;99724.25;5034252;28;20025;-46
2023/10/26 09:12:21;;;;;;;28.95;11.32;;;;;;;14.37;77.26;99720.47;5034979;28;20120;-48
2023/10/26 09:15:03;;;;;;;29.38;11.75;;;;;;;14.78;75.88;99731.84;5050401;28;20740;-46
2023/10/26 09:17:30;;;;;;;30.52;12.20;;;;;;;14.71;76.48;99730.25;5033879;28;20185;-46
2023/10/26 09:19:55;;;;;;;30.67;12.02;;;;;;;15.05;75.88;99731.25;5031292;28;20029;-49
2023/10/26 09:22:37;;;;;;;30.00;12.32;;;;;;;14.91;75.85;99721.06;5032026;28;20484;-48
2023/10/26 09:25:10;;;;;;;32.80;12.75;;;;;;;14.78;75.91;99721.34;5031406;28;20111;-46
2023/10/26 09:27:36;;;;;;;27.98;11.93;;;;;;;14.05;77.52;99713.22;5031578;28;20064;-49
2023/10/26 09:30:03;;;;;;;27.75;12.45;;;;;;;14.82;75.21;99707.28;5031657;28;20643;-47
2023/10/26 09:32:35;;;;;;;31.67;12.90;;;;;;;14.68;75.77;99704.09;5031063;28;20037;-48
2023/10/26 09:35:01;;;;;;;31.25;13.02;;;;;;;14.72;76.06;99705.75;5031039;28;20041;-46
2023/10/26 09:37:27;;;;;;;28.95;12.85;;;;;;;14.96;75.39;99716.56;5030134;28;20423;-44
2023/10/26 09:39:53;;;;;;;30.92;13.15;;;;;;;15.03;74.84;99709.41;5030429;28;20029;-53
2023/10/26 09:42:19;;;;;;;31.60;13.48;;;;;;;14.87;75.03;99706.28;5030718;28;20045;-49
2023/10/26 09:44:45;;;;;;;31.48;13.88;;;;;;;14.62;76.55;99705.09;5029784;28;20427;-48
2023/10/26 09:47:11;;;;;;;31.48;13.30;;;;;;;15.07;75.06;99703.19;5030649;28;20037;-45
2023/10/26 09:49:36;;;;;;;30.50;13.45;;;;;;;15.32;74.26;99695.56;5029950;28;20099;-45
2023/10/26 09:52:02;;;;;;;31.58;13.77;;;;;;;15.24;73.70;99703.66;5043951;28;20033;-45
2023/10/26 09:54:32;;;;;;;30.67;13.63;;;;;;;15.30;73.96;99700.88;5049190;28;20051;-46
2023/10/26 09:57:10;;;;;;;27.05;12.52;;;;;;;15.48;73.85;99704.81;5050106;28;20038;-44
2023/10/26 09:59:36;;;;;;;27.77;13.35;;;;;;;15.38;74.14;99706.78;5049331;28;20037;-47
2023/10/26 10:02:13;;;;;;;29.48;13.57;;;;;;;15.73;73.01;99702.47;5050103;28;20538;-46
2023/10/26 10:04:39;;;;;;;29.08;12.77;;;;;;;16.22;72.51;99697.56;5049247;28;20402;-45
2023/10/26 10:07:05;;;;;;;29.55;13.48;;;;;;;16.48;72.40;99691.56;5050364;28;20033;-46
2023/10/26 10:09:30;;;;;;;27.05;13.23;;;;;;;16.69;70.95;99695.38;5049444;28;20037;-47
2023/10/26 10:12:05;;;;;;;28.25;13.52;;;;;;;17.12;69.90;99694.03;5049571;28;20029;-48
2023/10/26 10:14:54;;;;;;;27.08;14.00;;;;;;;17.32;69.05;99696.91;5050662;28;20049;-44
2023/10/26 10:17:22;;;;;;;25.35;13.10;;;;;;;17.28;68.98;99705.78;5050610;28;20047;-50
2023/10/26 10:20:07;;;;;;;25.42;13.57;;;;;;;17.25;66.99;99700.63;5049781;28;20037;-47
2023/10/26 10:22:38;;;;;;;25.13;13.65;;;;;;;17.37;65.72;99703.75;5049194;28;20049;-44
2023/10/26 10:25:10;;;;;;;24.70;13.57;;;;;;;17.34;66.84;99705.59;5050098;28;20099;-47
2023/10/26 10:27:37;;;;;;;25.35;13.80;;;;;;;17.55;65.82;99706.66;5049538;28;20132;-51
2023/10/26 10:30:05;;;;;;;23.25;13.38;;;;;;;17.54;66.23;99703.16;5039740;28;20036;-49
2023/10/26 10:32:42;;;;;;;23.50;13.30;;;;;;;17.62;65.16;99695.03;5030208;28;20030;-52
2023/10/26 10:35:10;;;;;;;24.35;13.55;;;;;;;17.22;65.72;99691.06;5049477;28;20055;-46
2023/10/26 10:37:37;;;;;;;23.65;13.02;;;;;;;17.25;65.31;99684.84;5034813;28;20041;-46
2023/10/26 10:40:15;;;;;;;23.40;13.27;;;;;;;17.34;65.78;99682.75;5029832;28;20492;-48
2023/10/26 10:42:46;;;;;;;24.90;14.05;;;;;;;16.97;66.21;99669.03;5029213;28;20059;-47
2023/10/26 10:45:12;;;;;;;22.25;13.13;;;;;;;17.27;66.19;99661.91;5029290;28;20454;-47
2023/10/26 10:47:38;;;;;;;21.83;12.70;;;;;;;17.26;65.54;99655.78;5028885;28;20033;-50
2023/10/26 10:50:26;;;;;;;22.67;13.07;;;;;;;17.39;65.87;99658.88;5029221;28;20037;-46
2023/10/26 10:52:54;;;;;;;22.83;12.82;;;;;;;16.72;66.43;99657.56;5029118;28;20029;-48
2023/10/26 10:55:20;;;;;;;22.17;12.05;;;;;;;16.97;67.63;99653.25;5045571;28;20044;-47
2023/10/26 10:58:01;;;;;;;19.15;11.60;;;;;;;17.13;66.41;99643.09;5041643;28;20051;-52
2023/10/26 11:00:41;;;;;;;19.05;11.27;;;;;;;17.50;65.28;99642.72;5028937;28;20033;-47
2023/10/26 11:03:06;;;;;;;19.48;11.57;;;;;;;16.86;66.32;99643.06;5029402;28;20044;-47
2023/10/26 11:05:36;;;;;;;19.38;10.98;;;;;;;17.30;65.46;99639.00;5042175;28;20033;-47
2023/10/26 11:08:02;;;;;;;17.95;10.60;;;;;;;17.16;65.58;99643.84;5053327;28;20437;-50
2023/10/26 11:10:27;;;;;;;17.55;10.38;;;;;;;16.87;65.92;99644.78;5051532;28;20179;-50
2023/10/26 11:12:52;;;;;;;20.05;10.88;;;;;;;16.97;65.01;99635.69;5053056;28;20116;-46
2023/10/26 11:15:18;;;;;;;16.70;9.80;;;;;;;17.12;64.51;99638.72;5053072;28;20062;-47
2023/10/26 11:17:44;;;;;;;16.73;10.30;;;;;;;17.35;63.87;99641.47;5052911;28;20072;-49